Time;durP1;ratioP1;P1;durP2;ratioP2;P2;SDS_P1;SDS_P2;PMS_P1;PMS_P2;Temp;Humidity;BMP_temperature;BMP_pressure;BME280_temperature;BME280_humidity;BME280_pressure;Samples;Min_cycle;Max_cycle;Signal;HPM_P1;HPM_P2
2023/01/22 00:01:52;;;;;;;0.13;0.13;;;;;;;;;;5130703;28;20200;-80
2023/01/22 00:04:19;;;;;;;3.10;0.93;;;;;;;;;;5130694;27;20192;-81
2023/01/22 00:06:47;;;;;;;0.70;0.70;;;;;;;;;;5133957;27;20227;-80
2023/01/22 00:09:14;;;;;;;1.47;0.97;;;;;;;;;;5134997;27;20220;-80
2023/01/22 00:11:41;;;;;;;2.20;0.77;;;;;;;;;;5134570;27;20212;-81
2023/01/22 00:14:08;;;;;;;0.13;0.13;;;;;;;;;;5134871;27;20196;-80
2023/01/22 00:16:35;;;;;;;0.57;0.57;;;;;;;;;;5134914;27;20204;-80
2023/01/22 00:19:01;;;;;;;0.10;0.10;;;;;;;;;;5134600;27;20633;-80
2023/01/22 00:21:28;;;;;;;0.10;0.10;;;;;;;;;;5134855;27;20646;-79
2023/01/22 00:23:56;;;;;;;0.40;0.40;;;;;;;;;;5134310;27;20242;-80
2023/01/22 00:26:23;;;;;;;0.50;0.50;;;;;;;;;;5134605;27;20228;-80
2023/01/22 00:28:50;;;;;;;1.70;0.90;;;;;;;;;;5134309;27;20197;-80
2023/01/22 00:31:17;;;;;;;1.33;0.67;;;;;;;;;;5134221;27;20620;-81
2023/01/22 00:33:44;;;;;;;3.50;0.43;;;;;;;;;;5134097;27;20284;-80
2023/01/22 00:36:12;;;;;;;0.20;0.20;;;;;;;;;;5134242;27;20589;-81
2023/01/22 00:38:38;;;;;;;0.50;0.50;;;;;;;;;;5134490;27;20197;-81
2023/01/22 00:41:07;;;;;;;0.93;0.93;;;;;;;;;;5134538;27;20258;-82
2023/01/22 00:43:34;;;;;;;0.67;0.67;;;;;;;;;;5134407;27;20244;-81
2023/01/22 00:46:01;;;;;;;1.03;0.93;;;;;;;;;;5134232;27;20219;-81
2023/01/22 00:48:28;;;;;;;1.17;1.13;;;;;;;;;;5134432;27;20200;-80
2023/01/22 00:50:55;;;;;;;0.73;0.73;;;;;;;;;;5134478;27;20277;-81
2023/01/22 00:53:21;;;;;;;1.20;0.77;;;;;;;;;;5134145;27;20204;-80
2023/01/22 00:55:50;;;;;;;0.40;0.40;;;;;;;;;;5133744;27;20651;-81
2023/01/22 00:58:19;;;;;;;1.43;1.43;;;;;;;;;;5134123;27;20204;-78
2023/01/22 01:00:46;;;;;;;0.67;0.67;;;;;;;;;;5133908;27;20200;-81
2023/01/22 01:03:29;;;;;;;1.00;0.90;;;;;;;;;;5134032;27;20189;-82
2023/01/22 01:05:56;;;;;;;0.70;0.70;;;;;;;;;;5133648;27;20223;-80
2023/01/22 01:08:23;;;;;;;1.80;0.60;;;;;;;;;;5133812;27;20200;-80
2023/01/22 01:10:53;;;;;;;0.50;0.50;;;;;;;;;;5133600;27;20299;-79
2023/01/22 01:13:21;;;;;;;0.37;0.37;;;;;;;;;;5133661;27;20208;-79
2023/01/22 01:15:48;;;;;;;0.57;0.57;;;;;;;;;;5133530;27;20200;-81
2023/01/22 01:18:15;;;;;;;0.30;0.30;;;;;;;;;;5133394;27;20204;-80
2023/01/22 01:20:42;;;;;;;0.20;0.20;;;;;;;;;;5133507;27;20295;-81
2023/01/22 01:23:08;;;;;;;0.30;0.30;;;;;;;;;;5133142;27;20246;-81
2023/01/22 01:25:35;;;;;;;0.40;0.40;;;;;;;;;;5133521;27;20195;-81
2023/01/22 01:28:04;;;;;;;0.07;0.07;;;;;;;;;;5133184;27;20262;-80
2023/01/22 01:30:31;;;;;;;0.30;0.23;;;;;;;;;;5134721;27;20199;-81
2023/01/22 01:32:58;;;;;;;0.47;0.47;;;;;;;;;;5133325;27;20693;-81
2023/01/22 01:35:25;;;;;;;0.50;0.50;;;;;;;;;;5133064;27;20216;-79
2023/01/22 01:37:52;;;;;;;0.70;0.70;;;;;;;;;;5133044;27;20201;-80
2023/01/22 01:40:18;;;;;;;0.40;0.40;;;;;;;;;;5132947;27;20625;-80
2023/01/22 01:42:45;;;;;;;0.67;0.40;;;;;;;;;;5133340;27;20193;-80
2023/01/22 01:45:28;;;;;;;0.30;0.30;;;;;;;;;;5132898;27;20323;-79
2023/01/22 01:48:01;;;;;;;0.17;0.17;;;;;;;;;;5132494;27;20213;-80
2023/01/22 01:50:28;;;;;;;0.10;0.10;;;;;;;;;;5132979;27;20184;-79
2023/01/22 01:52:56;;;;;;;0.10;0.10;;;;;;;;;;5133393;27;20198;-79
2023/01/22 01:55:25;;;;;;;0.17;0.17;;;;;;;;;;5133255;27;20245;-79
2023/01/22 01:57:52;;;;;;;0.37;0.37;;;;;;;;;;5133381;27;20188;-81
2023/01/22 02:00:20;;;;;;;0.40;0.40;;;;;;;;;;5133684;27;20200;-80
2023/01/22 02:02:46;;;;;;;0.40;0.27;;;;;;;;;;5133603;27;20201;-81
2023/01/22 02:05:19;;;;;;;0.30;0.30;;;;;;;;;;5134080;27;20197;-80
2023/01/22 02:07:45;;;;;;;0.00;0.00;;;;;;;;;;5133472;27;20235;-80
2023/01/22 02:10:12;;;;;;;0.77;0.77;;;;;;;;;;5132684;27;20213;-80
2023/01/22 02:12:39;;;;;;;0.00;0.00;;;;;;;;;;5133060;27;20201;-80
2023/01/22 02:15:06;;;;;;;0.50;0.50;;;;;;;;;;5132599;27;20278;-80
2023/01/22 02:17:33;;;;;;;0.13;0.13;;;;;;;;;;5132923;27;20254;-80
2023/01/22 02:20:00;;;;;;;0.50;0.50;;;;;;;;;;5132486;27;20201;-81
2023/01/22 02:22:29;;;;;;;0.40;0.40;;;;;;;;;;5132443;27;20271;-80
2023/01/22 02:24:56;;;;;;;0.00;0.00;;;;;;;;;;5132172;27;20201;-79
2023/01/22 02:27:23;;;;;;;0.67;0.67;;;;;;;;;;5131890;27;20224;-79
2023/01/22 02:29:49;;;;;;;0.50;0.50;;;;;;;;;;5131241;27;20217;-80
2023/01/22 02:32:16;;;;;;;0.30;0.30;;;;;;;;;;5132032;27;20200;-80
2023/01/22 02:34:43;;;;;;;0.33;0.33;;;;;;;;;;5132333;27;20192;-79
2023/01/22 02:37:09;;;;;;;0.07;0.07;;;;;;;;;;5131960;27;20193;-80
2023/01/22 02:39:38;;;;;;;3.13;0.77;;;;;;;;;;5132128;27;20232;-81
2023/01/22 02:42:05;;;;;;;0.00;0.00;;;;;;;;;;5132303;27;20204;-80
2023/01/22 02:44:31;;;;;;;0.10;0.10;;;;;;;;;;5131779;27;20236;-80
2023/01/22 02:46:58;;;;;;;0.23;0.23;;;;;;;;;;5131546;27;20228;-80
2023/01/22 02:49:24;;;;;;;0.00;0.00;;;;;;;;;;5131856;27;20245;-78
2023/01/22 02:51:51;;;;;;;0.10;0.10;;;;;;;;;;5131587;27;20584;-78
2023/01/22 02:54:19;;;;;;;0.37;0.10;;;;;;;;;;5131453;27;20283;-79
2023/01/22 02:56:47;;;;;;;0.00;0.00;;;;;;;;;;5131511;27;20196;-79
2023/01/22 02:59:13;;;;;;;0.00;0.00;;;;;;;;;;5132214;27;20201;-81
2023/01/22 03:01:40;;;;;;;0.03;0.03;;;;;;;;;;5131925;27;20208;-80
2023/01/22 03:04:09;;;;;;;0.17;0.17;;;;;;;;;;5132391;27;20196;-78
2023/01/22 03:06:36;;;;;;;0.00;0.00;;;;;;;;;;5131412;27;20280;-80
2023/01/22 03:09:04;;;;;;;0.00;0.00;;;;;;;;;;5131319;27;20305;-80
2023/01/22 03:11:31;;;;;;;0.00;0.00;;;;;;;;;;5131217;27;20589;-79
2023/01/22 03:22:11;;;;;;;0.00;0.00;;;;;;;;;;5131365;27;20257;-80
2023/01/22 03:24:38;;;;;;;0.10;0.10;;;;;;;;;;5131388;27;20200;-80
2023/01/22 03:27:05;;;;;;;0.00;0.00;;;;;;;;;;5130940;27;20293;-80
2023/01/22 03:29:37;;;;;;;0.30;0.30;;;;;;;;;;5130907;27;20204;-80
2023/01/22 03:32:04;;;;;;;0.10;0.10;;;;;;;;;;5131118;27;20253;-80
2023/01/22 03:34:30;;;;;;;0.00;0.00;;;;;;;;;;5130959;27;20201;-79
2023/01/22 03:36:57;;;;;;;0.10;0.10;;;;;;;;;;5131263;27;20200;-80
2023/01/22 03:39:24;;;;;;;0.00;0.00;;;;;;;;;;5130994;27;20196;-80
2023/01/22 03:41:50;;;;;;;0.00;0.00;;;;;;;;;;5131062;27;20192;-81
2023/01/22 03:44:17;;;;;;;0.00;0.00;;;;;;;;;;5130868;27;20228;-81
2023/01/22 03:46:45;;;;;;;0.50;0.50;;;;;;;;;;5131134;28;20200;-81
2023/01/22 03:49:12;;;;;;;0.00;0.00;;;;;;;;;;5130686;28;20199;-79
2023/01/22 03:51:39;;;;;;;0.40;0.40;;;;;;;;;;5130901;28;20196;-81
2023/01/22 03:54:06;;;;;;;0.10;0.10;;;;;;;;;;5130525;28;20219;-81
2023/01/22 03:56:32;;;;;;;0.73;0.20;;;;;;;;;;5130601;28;20223;-79
2023/01/22 03:58:59;;;;;;;0.00;0.00;;;;;;;;;;5130861;28;20286;-80
2023/01/22 04:01:27;;;;;;;0.00;0.00;;;;;;;;;;5131042;27;20204;-80
2023/01/22 04:03:55;;;;;;;0.03;0.03;;;;;;;;;;5130777;28;20752;-80
2023/01/22 04:06:22;;;;;;;0.00;0.00;;;;;;;;;;5130852;28;20201;-80
2023/01/22 04:08:50;;;;;;;0.70;0.37;;;;;;;;;;5130911;28;20232;-80
2023/01/22 04:11:17;;;;;;;0.07;0.07;;;;;;;;;;5131104;28;20207;-81
2023/01/22 04:13:44;;;;;;;0.00;0.00;;;;;;;;;;5130665;28;20192;-81
2023/01/22 04:16:11;;;;;;;0.00;0.00;;;;;;;;;;5130201;28;20200;-80
2023/01/22 04:18:38;;;;;;;0.27;0.23;;;;;;;;;;5129250;28;20223;-80
2023/01/22 04:21:06;;;;;;;0.00;0.00;;;;;;;;;;5130501;28;20193;-80
2023/01/22 04:23:32;;;;;;;0.10;0.10;;;;;;;;;;5130468;28;20193;-81
2023/01/22 04:25:59;;;;;;;0.07;0.07;;;;;;;;;;5130213;27;20200;-81
2023/01/22 04:28:25;;;;;;;0.63;0.63;;;;;;;;;;5130114;28;20269;-81
2023/01/22 04:30:53;;;;;;;0.00;0.00;;;;;;;;;;5130874;28;20193;-81
2023/01/22 04:33:20;;;;;;;0.43;0.37;;;;;;;;;;5130274;28;20261;-80
2023/01/22 04:35:49;;;;;;;0.10;0.10;;;;;;;;;;5130681;28;20220;-81
2023/01/22 04:38:17;;;;;;;0.83;0.20;;;;;;;;;;5130586;28;20193;-79
2023/01/22 04:40:44;;;;;;;0.30;0.30;;;;;;;;;;5130808;28;20197;-80
2023/01/22 04:43:11;;;;;;;0.30;0.13;;;;;;;;;;5131018;28;20193;-80
2023/01/22 04:45:37;;;;;;;0.10;0.10;;;;;;;;;;5131328;28;20193;-80
2023/01/22 04:48:04;;;;;;;0.17;0.17;;;;;;;;;;5131055;28;20228;-81
2023/01/22 04:50:32;;;;;;;3.93;0.73;;;;;;;;;;5130032;27;20242;-80
2023/01/22 04:52:58;;;;;;;0.00;0.00;;;;;;;;;;5133429;27;20200;-79
2023/01/22 04:55:27;;;;;;;0.50;0.50;;;;;;;;;;5134064;27;20316;-80
2023/01/22 04:57:54;;;;;;;0.33;0.33;;;;;;;;;;5133714;27;20197;-80
2023/01/22 05:00:21;;;;;;;0.20;0.20;;;;;;;;;;5133744;27;20208;-80
2023/01/22 05:02:47;;;;;;;0.40;0.40;;;;;;;;;;5133656;27;20194;-81
2023/01/22 05:05:14;;;;;;;0.73;0.03;;;;;;;;;;5134039;27;20284;-79
2023/01/22 05:07:40;;;;;;;0.10;0.10;;;;;;;;;;5133443;27;20220;-80
2023/01/22 05:10:08;;;;;;;0.10;0.10;;;;;;;;;;5133408;27;20269;-81
2023/01/22 05:12:36;;;;;;;0.10;0.10;;;;;;;;;;5133869;27;20256;-81
2023/01/22 05:15:02;;;;;;;0.50;0.47;;;;;;;;;;5133793;27;20206;-80
2023/01/22 05:17:29;;;;;;;0.40;0.40;;;;;;;;;;5133491;27;20653;-80
2023/01/22 05:19:56;;;;;;;0.67;0.67;;;;;;;;;;5133809;27;20193;-80
2023/01/22 05:22:22;;;;;;;1.70;0.60;;;;;;;;;;5133794;27;20201;-79
2023/01/22 05:24:49;;;;;;;0.37;0.13;;;;;;;;;;5133204;27;20241;-80
2023/01/22 05:27:15;;;;;;;0.50;0.20;;;;;;;;;;5133036;27;20245;-81
2023/01/22 05:29:43;;;;;;;0.67;0.50;;;;;;;;;;5133524;27;20220;-80
2023/01/22 05:32:10;;;;;;;0.10;0.10;;;;;;;;;;5133360;27;20219;-78
2023/01/22 05:34:36;;;;;;;0.00;0.00;;;;;;;;;;5133031;27;20199;-80
2023/01/22 05:37:03;;;;;;;0.17;0.17;;;;;;;;;;5132985;27;20203;-80
2023/01/22 05:39:30;;;;;;;0.27;0.27;;;;;;;;;;5132830;27;20196;-81
2023/01/22 05:41:57;;;;;;;0.07;0.07;;;;;;;;;;5133076;27;20197;-80
2023/01/22 05:44:25;;;;;;;0.00;0.00;;;;;;;;;;5132840;27;20322;-79
2023/01/22 05:46:53;;;;;;;0.00;0.00;;;;;;;;;;5133345;27;20197;-81
2023/01/22 05:49:19;;;;;;;0.20;0.20;;;;;;;;;;5133766;27;20233;-80
2023/01/22 05:51:46;;;;;;;0.63;0.63;;;;;;;;;;5133325;27;20245;-81
2023/01/22 05:54:13;;;;;;;0.20;0.20;;;;;;;;;;5133251;27;20224;-80
2023/01/22 05:56:39;;;;;;;0.10;0.10;;;;;;;;;;5133409;27;20592;-81
2023/01/22 05:59:06;;;;;;;0.30;0.30;;;;;;;;;;5132664;27;20660;-81
2023/01/22 06:01:32;;;;;;;1.10;0.67;;;;;;;;;;5133001;27;20686;-79
2023/01/22 06:04:00;;;;;;;0.13;0.13;;;;;;;;;;5132541;27;20200;-80
2023/01/22 06:06:27;;;;;;;3.80;0.43;;;;;;;;;;5132940;27;20567;-81
2023/01/22 06:08:54;;;;;;;0.27;0.27;;;;;;;;;;5132378;27;20296;-81
2023/01/22 06:11:20;;;;;;;0.30;0.30;;;;;;;;;;5133088;27;20192;-81
2023/01/22 06:13:47;;;;;;;0.20;0.20;;;;;;;;;;5132828;27;20197;-80
2023/01/22 06:16:14;;;;;;;0.10;0.10;;;;;;;;;;5133473;27;20613;-80
2023/01/22 06:18:41;;;;;;;0.50;0.50;;;;;;;;;;5132526;27;20567;-81
2023/01/22 06:21:09;;;;;;;0.40;0.40;;;;;;;;;;5132592;27;20273;-80
2023/01/22 06:23:36;;;;;;;0.60;0.60;;;;;;;;;;5132589;27;20284;-81
2023/01/22 06:26:04;;;;;;;0.50;0.40;;;;;;;;;;5133060;27;20238;-81
2023/01/22 06:28:30;;;;;;;2.80;0.87;;;;;;;;;;5132172;27;20233;-79
2023/01/22 06:30:58;;;;;;;0.30;0.30;;;;;;;;;;5138675;27;20200;-80
2023/01/22 06:33:25;;;;;;;0.30;0.30;;;;;;;;;;5143056;27;20197;-80
2023/01/22 06:35:55;;;;;;;0.20;0.20;;;;;;;;;;5134368;27;20683;-80
2023/01/22 06:38:23;;;;;;;0.60;0.60;;;;;;;;;;5133030;27;20195;-80
2023/01/22 06:40:53;;;;;;;0.43;0.43;;;;;;;;;;5132003;27;20665;-80
2023/01/22 06:43:21;;;;;;;0.23;0.23;;;;;;;;;;5131642;27;20688;-80
2023/01/22 06:45:47;;;;;;;0.67;0.67;;;;;;;;;;5131828;27;20206;-79
2023/01/22 06:48:14;;;;;;;0.40;0.40;;;;;;;;;;5131895;27;20379;-81
2023/01/22 06:50:40;;;;;;;2.10;0.30;;;;;;;;;;5132431;27;20203;-80
2023/01/22 06:53:07;;;;;;;0.33;0.33;;;;;;;;;;5133241;27;20239;-81
2023/01/22 06:55:36;;;;;;;1.20;1.20;;;;;;;;;;5132704;27;20202;-82
2023/01/22 06:58:03;;;;;;;1.03;1.03;;;;;;;;;;5132198;27;20202;-81
2023/01/22 07:00:29;;;;;;;0.87;0.70;;;;;;;;;;5132020;27;20204;-82
2023/01/22 07:02:56;;;;;;;1.90;1.80;;;;;;;;;;5132165;27;20197;-81
2023/01/22 07:05:23;;;;;;;1.70;1.70;;;;;;;;;;5132437;27;20698;-80
2023/01/22 07:07:52;;;;;;;3.37;1.03;;;;;;;;;;5133783;27;20197;-80
2023/01/22 07:10:19;;;;;;;1.50;1.40;;;;;;;;;;5132923;27;20744;-81
2023/01/22 07:12:48;;;;;;;6.47;1.10;;;;;;;;;;5132320;27;20677;-81
2023/01/22 07:15:15;;;;;;;0.47;0.47;;;;;;;;;;5132228;27;20207;-82
2023/01/22 07:17:42;;;;;;;2.27;1.07;;;;;;;;;;5132990;27;20249;-82
2023/01/22 07:20:09;;;;;;;1.60;0.90;;;;;;;;;;5131802;27;20756;-82
2023/01/22 07:22:35;;;;;;;1.20;1.20;;;;;;;;;;5131329;27;20205;-81
2023/01/22 07:25:02;;;;;;;0.87;0.87;;;;;;;;;;5132137;27;20202;-83
2023/01/22 07:27:31;;;;;;;3.13;1.07;;;;;;;;;;5134480;27;20230;-80
2023/01/22 07:29:59;;;;;;;4.00;1.87;;;;;;;;;;5132002;27;20287;-80
2023/01/22 07:32:25;;;;;;;1.67;1.50;;;;;;;;;;5131875;27;20195;-82
2023/01/22 07:34:52;;;;;;;0.93;0.60;;;;;;;;;;5131994;27;20663;-80
2023/01/22 07:37:19;;;;;;;0.40;0.40;;;;;;;;;;5131742;27;20196;-81
2023/01/22 07:39:45;;;;;;;1.97;1.83;;;;;;;;;;5131463;27;20212;-82
2023/01/22 07:42:12;;;;;;;0.67;0.67;;;;;;;;;;5131919;27;20199;-79
2023/01/22 07:44:40;;;;;;;1.70;1.60;;;;;;;;;;5131884;27;20224;-80
2023/01/22 07:47:09;;;;;;;3.23;1.40;;;;;;;;;;5131874;28;20228;-81
2023/01/22 07:49:36;;;;;;;0.37;0.37;;;;;;;;;;5131962;27;20233;-81
2023/01/22 07:52:02;;;;;;;0.50;0.50;;;;;;;;;;5131391;28;20198;-80
2023/01/22 07:54:32;;;;;;;1.55;1.45;;;;;;;;;;5131676;28;20189;-80
2023/01/22 07:56:59;;;;;;;0.20;0.20;;;;;;;;;;5133106;28;20737;-82
2023/01/22 07:59:26;;;;;;;1.07;0.67;;;;;;;;;;5132009;28;20197;-80
2023/01/22 08:01:54;;;;;;;0.80;0.80;;;;;;;;;;5131770;28;20197;-81
2023/01/22 08:04:22;;;;;;;1.03;0.60;;;;;;;;;;5131523;28;20196;-81
2023/01/22 08:06:48;;;;;;;1.17;1.17;;;;;;;;;;5134116;28;20199;-81
2023/01/22 08:09:23;;;;;;;0.60;0.60;;;;;;;;;;5131589;28;20234;-81
2023/01/22 08:11:50;;;;;;;2.03;0.53;;;;;;;;;;5131544;28;20492;-81
2023/01/22 08:14:16;;;;;;;1.03;0.97;;;;;;;;;;5131454;28;20270;-81
2023/01/22 08:16:43;;;;;;;2.20;0.87;;;;;;;;;;5131332;28;20204;-81
2023/01/22 08:19:10;;;;;;;0.80;0.80;;;;;;;;;;5131085;27;20276;-79
2023/01/22 08:21:41;;;;;;;2.30;0.93;;;;;;;;;;5131191;27;20201;-81
2023/01/22 08:24:09;;;;;;;0.63;0.63;;;;;;;;;;5131353;28;20188;-79
2023/01/22 08:26:35;;;;;;;1.90;0.90;;;;;;;;;;5132018;27;20227;-83
2023/01/22 08:29:02;;;;;;;0.73;0.53;;;;;;;;;;5135252;27;20229;-82
2023/01/22 08:31:28;;;;;;;1.10;1.10;;;;;;;;;;5135325;27;20197;-82
2023/01/22 08:33:55;;;;;;;0.73;0.73;;;;;;;;;;5135365;27;20246;-81
2023/01/22 08:36:22;;;;;;;0.83;0.83;;;;;;;;;;5135111;27;20202;-82
2023/01/22 08:38:50;;;;;;;0.90;0.90;;;;;;;;;;5135409;27;20191;-81
2023/01/22 08:41:16;;;;;;;6.83;0.83;;;;;;;;;;5135360;27;20216;-81
2023/01/22 08:43:43;;;;;;;1.47;1.13;;;;;;;;;;5134968;27;20617;-81
2023/01/22 08:46:10;;;;;;;1.13;1.13;;;;;;;;;;5134942;27;20667;-83
2023/01/22 08:48:37;;;;;;;1.20;1.20;;;;;;;;;;5134389;27;20269;-81
2023/01/22 08:51:04;;;;;;;1.23;0.77;;;;;;;;;;5134861;27;20287;-82
2023/01/22 08:53:31;;;;;;;0.83;0.80;;;;;;;;;;5134718;27;20226;-82
2023/01/22 08:55:59;;;;;;;1.30;0.50;;;;;;;;;;5134661;27;20206;-82
2023/01/22 08:58:26;;;;;;;0.83;0.83;;;;;;;;;;5134336;27;20574;-81
2023/01/22 09:00:53;;;;;;;0.77;0.77;;;;;;;;;;5134521;27;20269;-81
2023/01/22 09:03:21;;;;;;;1.20;1.10;;;;;;;;;;5135186;27;20204;-80
2023/01/22 09:05:47;;;;;;;0.60;0.60;;;;;;;;;;5134285;27;20199;-81
2023/01/22 09:08:14;;;;;;;0.97;0.97;;;;;;;;;;5134554;27;20193;-81
2023/01/22 09:10:42;;;;;;;0.53;0.53;;;;;;;;;;5134400;27;20329;-80
2023/01/22 09:13:10;;;;;;;1.60;1.50;;;;;;;;;;5134237;27;20654;-81
2023/01/22 09:15:37;;;;;;;3.73;1.63;;;;;;;;;;5134732;27;20216;-80
2023/01/22 09:18:04;;;;;;;2.90;1.43;;;;;;;;;;5134326;27;20185;-80
2023/01/22 09:20:30;;;;;;;4.00;1.63;;;;;;;;;;5134284;27;20200;-80
2023/01/22 09:22:57;;;;;;;1.97;1.90;;;;;;;;;;5133960;27;20675;-80
2023/01/22 09:25:25;;;;;;;1.67;1.57;;;;;;;;;;5134118;27;20200;-82
2023/01/22 09:27:56;;;;;;;4.73;1.60;;;;;;;;;;5133965;27;20609;-82
2023/01/22 09:30:25;;;;;;;9.53;3.03;;;;;;;;;;5134502;27;20218;-82
2023/01/22 09:32:51;;;;;;;6.33;1.97;;;;;;;;;;5134535;27;20688;-81
2023/01/22 09:35:18;;;;;;;3.07;2.23;;;;;;;;;;5134448;27;20193;-81
2023/01/22 09:37:44;;;;;;;1.40;1.37;;;;;;;;;;5133534;27;20670;-82
2023/01/22 09:40:20;;;;;;;4.57;1.67;;;;;;;;;;5134205;27;20212;-82
2023/01/22 09:42:47;;;;;;;1.57;1.50;;;;;;;;;;5133705;27;20245;-81
2023/01/22 09:45:14;;;;;;;1.30;1.13;;;;;;;;;;5133845;27;20695;-81
2023/01/22 09:47:46;;;;;;;1.07;1.07;;;;;;;;;;5133724;27;20271;-81
2023/01/22 09:50:14;;;;;;;2.47;1.53;;;;;;;;;;5133447;27;20652;-79
2023/01/22 09:52:41;;;;;;;3.23;1.77;;;;;;;;;;5133732;27;20618;-81
2023/01/22 09:55:11;;;;;;;1.30;1.20;;;;;;;;;;5133651;27;20191;-80
2023/01/22 09:57:39;;;;;;;0.90;0.90;;;;;;;;;;5133235;27;20196;-81
2023/01/22 10:00:10;;;;;;;1.83;1.73;;;;;;;;;;5133640;27;20198;-82
2023/01/22 10:02:39;;;;;;;2.30;1.20;;;;;;;;;;5133200;27;20197;-81
2023/01/22 10:05:16;;;;;;;4.80;1.73;;;;;;;;;;5133323;27;20250;-82
2023/01/22 10:07:47;;;;;;;2.57;1.50;;;;;;;;;;5133292;27;20196;-81
2023/01/22 10:10:18;;;;;;;4.37;1.77;;;;;;;;;;5133091;27;20318;-83
2023/01/22 10:12:46;;;;;;;1.60;1.57;;;;;;;;;;5133452;27;20274;-81
2023/01/22 10:15:14;;;;;;;1.77;1.20;;;;;;;;;;5133406;27;20197;-79
2023/01/22 10:17:41;;;;;;;0.95;0.95;;;;;;;;;;5132864;27;20681;-80
2023/01/22 10:20:12;;;;;;;1.85;1.60;;;;;;;;;;5133318;27;20207;-80
2023/01/22 10:22:39;;;;;;;0.68;0.68;;;;;;;;;;5133196;27;20233;-80
2023/01/22 10:25:06;;;;;;;0.47;0.47;;;;;;;;;;5133155;27;20623;-80
2023/01/22 10:27:35;;;;;;;0.30;0.30;;;;;;;;;;5133181;27;20255;-81
2023/01/22 10:30:02;;;;;;;0.88;0.52;;;;;;;;;;5133182;27;20699;-80
2023/01/22 10:32:30;;;;;;;0.75;0.75;;;;;;;;;;5132945;27;20741;-80
2023/01/22 10:34:58;;;;;;;3.50;1.08;;;;;;;;;;5132940;27;20198;-80
2023/01/22 10:37:26;;;;;;;1.02;1.00;;;;;;;;;;5132852;27;20202;-80
2023/01/22 10:39:56;;;;;;;0.65;0.65;;;;;;;;;;5133127;27;20212;-79
2023/01/22 10:42:24;;;;;;;0.20;0.20;;;;;;;;;;5133042;27;20197;-80
2023/01/22 10:44:54;;;;;;;0.38;0.38;;;;;;;;;;5132938;27;20240;-81
2023/01/22 10:47:22;;;;;;;1.38;1.27;;;;;;;;;;5133231;27;20195;-81
2023/01/22 10:49:49;;;;;;;0.30;0.30;;;;;;;;;;5132113;27;20769;-80
2023/01/22 10:52:20;;;;;;;0.83;0.40;;;;;;;;;;5132516;27;20246;-80
2023/01/22 10:54:52;;;;;;;0.53;0.53;;;;;;;;;;5132349;27;20299;-80
2023/01/22 10:57:20;;;;;;;0.07;0.07;;;;;;;;;;5132195;27;20197;-81
2023/01/22 10:59:50;;;;;;;0.67;0.57;;;;;;;;;;5132825;27;20193;-79
2023/01/22 11:02:18;;;;;;;0.23;0.23;;;;;;;;;;5132606;27;20224;-81
2023/01/22 11:04:45;;;;;;;0.57;0.57;;;;;;;;;;5134778;27;20211;-82
2023/01/22 11:07:13;;;;;;;0.30;0.30;;;;;;;;;;5137501;27;20218;-81
2023/01/22 11:09:42;;;;;;;0.27;0.27;;;;;;;;;;5135210;27;20229;-81
2023/01/22 11:12:14;;;;;;;1.03;1.03;;;;;;;;;;5132542;27;20198;-79
2023/01/22 11:14:40;;;;;;;0.13;0.13;;;;;;;;;;5132115;27;20201;-80
2023/01/22 11:17:13;;;;;;;5.23;1.27;;;;;;;;;;5132326;27;20208;-80
2023/01/22 11:19:42;;;;;;;0.00;0.00;;;;;;;;;;5132085;27;20208;-80
2023/01/22 11:22:14;;;;;;;0.20;0.20;;;;;;;;;;5132073;27;20207;-81
2023/01/22 11:24:45;;;;;;;1.30;0.53;;;;;;;;;;5133952;27;20203;-81
2023/01/22 11:27:23;;;;;;;0.47;0.47;;;;;;;;;;5132546;27;20220;-80
2023/01/22 11:29:57;;;;;;;0.13;0.13;;;;;;;;;;5131674;27;20283;-81
2023/01/22 11:32:41;;;;;;;0.00;0.00;;;;;;;;;;5132120;27;20296;-81
2023/01/22 11:35:14;;;;;;;0.10;0.10;;;;;;;;;;5118906;27;20725;-80
2023/01/22 11:37:46;;;;;;;0.10;0.10;;;;;;;;;;5132701;27;20195;-79
2023/01/22 11:40:19;;;;;;;5.33;0.90;;;;;;;;;;5132411;27;20200;-79
2023/01/22 11:42:55;;;;;;;0.00;0.00;;;;;;;;;;5132438;27;20216;-81
2023/01/22 11:45:28;;;;;;;0.07;0.07;;;;;;;;;;5131425;27;20647;-80
2023/01/22 11:48:09;;;;;;;0.00;0.00;;;;;;;;;;5132119;27;20262;-81
2023/01/22 11:50:39;;;;;;;0.23;0.23;;;;;;;;;;5129039;28;20231;-80
2023/01/22 11:53:13;;;;;;;0.20;0.20;;;;;;;;;;5132018;28;20204;-82
2023/01/22 11:55:47;;;;;;;0.20;0.20;;;;;;;;;;5132276;28;20281;-79
2023/01/22 11:58:20;;;;;;;0.73;0.33;;;;;;;;;;5131659;28;20201;-80
2023/01/22 12:00:53;;;;;;;0.47;0.47;;;;;;;;;;5133300;27;20225;-81
2023/01/22 12:03:42;;;;;;;0.00;0.00;;;;;;;;;;5135887;27;20210;-81
2023/01/22 12:06:15;;;;;;;0.17;0.17;;;;;;;;;;5136304;27;20207;-80
2023/01/22 12:08:50;;;;;;;0.00;0.00;;;;;;;;;;5135847;27;20670;-80
2023/01/22 12:11:27;;;;;;;1.33;0.67;;;;;;;;;;5135929;27;20218;-80
2023/01/22 12:14:09;;;;;;;0.70;0.53;;;;;;;;;;5135685;27;20186;-80
2023/01/22 12:16:42;;;;;;;0.30;0.30;;;;;;;;;;5135801;27;20226;-80
2023/01/22 12:19:19;;;;;;;0.33;0.33;;;;;;;;;;5135534;27;20203;-80
2023/01/22 12:21:52;;;;;;;0.20;0.20;;;;;;;;;;5136564;27;20187;-81
2023/01/22 12:24:23;;;;;;;1.03;0.70;;;;;;;;;;5136547;27;20286;-81
2023/01/22 12:26:53;;;;;;;1.67;1.20;;;;;;;;;;5136092;27;20221;-79
2023/01/22 12:29:22;;;;;;;0.00;0.00;;;;;;;;;;5135539;27;20290;-80
2023/01/22 12:31:50;;;;;;;0.00;0.00;;;;;;;;;;5134983;27;20721;-80
2023/01/22 12:34:19;;;;;;;3.93;0.67;;;;;;;;;;5135065;27;20695;-80
2023/01/22 12:36:47;;;;;;;0.10;0.10;;;;;;;;;;5135234;27;20199;-80
2023/01/22 12:39:19;;;;;;;0.20;0.20;;;;;;;;;;5135103;27;20282;-80
2023/01/22 12:41:49;;;;;;;1.07;0.77;;;;;;;;;;5134877;27;20267;-81
2023/01/22 12:44:30;;;;;;;0.67;0.37;;;;;;;;;;5134849;27;20289;-80
2023/01/22 12:47:01;;;;;;;0.37;0.37;;;;;;;;;;5135474;27;20189;-80
2023/01/22 12:49:28;;;;;;;0.40;0.40;;;;;;;;;;5135042;27;20264;-81
2023/01/22 12:51:55;;;;;;;0.50;0.50;;;;;;;;;;5134720;27;20230;-80
2023/01/22 12:54:27;;;;;;;1.67;0.30;;;;;;;;;;5135149;27;20285;-80
2023/01/22 12:56:56;;;;;;;0.20;0.20;;;;;;;;;;5135283;27;20207;-79
2023/01/22 12:59:31;;;;;;;0.10;0.10;;;;;;;;;;5135037;27;20261;-81
2023/01/22 13:01:59;;;;;;;0.93;0.57;;;;;;;;;;5134599;27;20185;-80
2023/01/22 13:04:28;;;;;;;0.30;0.30;;;;;;;;;;5134828;27;20213;-79
2023/01/22 13:07:04;;;;;;;1.47;0.73;;;;;;;;;;5134598;27;20195;-80
2023/01/22 13:09:35;;;;;;;0.00;0.00;;;;;;;;;;5134866;27;20598;-81
2023/01/22 13:12:08;;;;;;;0.20;0.20;;;;;;;;;;5133561;27;20239;-80
2023/01/22 13:14:41;;;;;;;0.00;0.00;;;;;;;;;;5134548;27;20209;-80
2023/01/22 13:17:16;;;;;;;0.03;0.03;;;;;;;;;;5134291;27;20615;-80
2023/01/22 13:19:44;;;;;;;0.10;0.10;;;;;;;;;;5133992;27;20600;-80
2023/01/22 13:22:13;;;;;;;0.20;0.20;;;;;;;;;;5134579;27;20260;-81
2023/01/22 13:24:48;;;;;;;0.10;0.10;;;;;;;;;;5134221;27;20226;-80
2023/01/22 13:27:22;;;;;;;0.27;0.27;;;;;;;;;;5134500;27;20191;-80
2023/01/22 13:29:50;;;;;;;0.40;0.40;;;;;;;;;;5134334;27;20193;-81
2023/01/22 13:32:18;;;;;;;0.03;0.03;;;;;;;;;;5134176;27;20201;-81
2023/01/22 13:34:44;;;;;;;1.07;1.07;;;;;;;;;;5134267;27;20258;-81
2023/01/22 13:37:20;;;;;;;0.13;0.07;;;;;;;;;;5133954;27;20679;-81
2023/01/22 13:39:47;;;;;;;0.67;0.20;;;;;;;;;;5134299;27;20196;-81
2023/01/22 13:42:14;;;;;;;0.03;0.03;;;;;;;;;;5135137;27;20225;-81
2023/01/22 13:44:46;;;;;;;0.07;0.07;;;;;;;;;;5133268;27;20246;-81
2023/01/22 13:47:25;;;;;;;0.40;0.40;;;;;;;;;;5134309;27;20197;-79
2023/01/22 13:49:52;;;;;;;1.23;0.57;;;;;;;;;;5134006;27;20200;-80
2023/01/22 13:52:19;;;;;;;0.00;0.00;;;;;;;;;;5133856;27;20201;-80
2023/01/22 13:54:47;;;;;;;1.10;0.30;;;;;;;;;;5133672;27;20192;-80
2023/01/22 13:57:16;;;;;;;0.30;0.30;;;;;;;;;;5133734;27;20202;-81
2023/01/22 13:59:51;;;;;;;1.00;0.10;;;;;;;;;;5133823;27;20643;-80
2023/01/22 14:02:22;;;;;;;0.10;0.10;;;;;;;;;;5133980;27;20210;-80
2023/01/22 14:04:49;;;;;;;0.10;0.10;;;;;;;;;;5133717;27;20634;-81
2023/01/22 14:07:22;;;;;;;0.40;0.40;;;;;;;;;;5133932;27;20198;-82
2023/01/22 14:09:49;;;;;;;0.20;0.20;;;;;;;;;;5134429;27;20213;-80
2023/01/22 14:12:17;;;;;;;0.13;0.13;;;;;;;;;;5133843;27;20234;-80
2023/01/22 14:14:44;;;;;;;0.03;0.03;;;;;;;;;;5134069;27;20204;-81
2023/01/22 14:17:20;;;;;;;0.30;0.20;;;;;;;;;;5135061;27;20201;-80
2023/01/22 14:19:48;;;;;;;0.20;0.20;;;;;;;;;;5133301;27;20630;-80
2023/01/22 14:22:14;;;;;;;0.30;0.30;;;;;;;;;;5133631;27;20201;-84
2023/01/22 14:24:41;;;;;;;0.30;0.30;;;;;;;;;;5132058;27;20199;-81
2023/01/22 14:27:08;;;;;;;0.37;0.37;;;;;;;;;;5133226;27;20205;-81
2023/01/22 14:29:35;;;;;;;0.20;0.20;;;;;;;;;;5134757;27;20194;-81
2023/01/22 14:32:02;;;;;;;0.30;0.30;;;;;;;;;;5132850;27;20241;-81
2023/01/22 14:34:29;;;;;;;0.30;0.30;;;;;;;;;;5133074;27;20204;-80
2023/01/22 14:36:57;;;;;;;0.30;0.20;;;;;;;;;;5132768;27;20224;-80
2023/01/22 14:39:23;;;;;;;0.10;0.10;;;;;;;;;;5133201;27;20273;-79
2023/01/22 14:41:50;;;;;;;0.57;0.57;;;;;;;;;;5132402;27;20196;-79
2023/01/22 14:44:17;;;;;;;0.87;0.33;;;;;;;;;;5132451;27;20224;-80
2023/01/22 14:46:43;;;;;;;0.13;0.13;;;;;;;;;;5132683;27;20197;-80
2023/01/22 14:49:10;;;;;;;0.10;0.10;;;;;;;;;;5132450;27;20284;-80
2023/01/22 14:51:37;;;;;;;0.20;0.20;;;;;;;;;;5132109;27;20224;-81
2023/01/22 14:54:06;;;;;;;0.13;0.13;;;;;;;;;;5132398;27;20193;-80
2023/01/22 14:56:32;;;;;;;0.53;0.20;;;;;;;;;;5132156;27;20632;-80
2023/01/22 14:58:59;;;;;;;0.10;0.10;;;;;;;;;;5132725;27;20623;-81